sensor_id;sensor_type;location;lat;lon;timestamp;temperature;humidity
16958;DHT22;8595;52.542;11.974;2023-02-01T00:01:30;5.20;99.90
16958;DHT22;8595;52.542;11.974;2023-02-01T00:03:57;5.20;99.90
16958;DHT22;8595;52.542;11.974;2023-02-01T00:06:23;5.20;99.90
16958;DHT22;8595;52.542;11.974;2023-02-01T00:08:52;5.20;99.90
16958;DHT22;8595;52.542;11.974;2023-02-01T00:11:20;5.30;99.90
16958;DHT22;8595;52.542;11.974;2023-02-01T00:13:48;5.20;99.90
16958;DHT22;8595;52.542;11.974;2023-02-01T00:16:17;5.20;99.90
16958;DHT22;8595;52.542;11.974;2023-02-01T00:18:47;5.20;99.90
16958;DHT22;8595;52.542;11.974;2023-02-01T00:21:15;5.20;99.90
16958;DHT22;8595;52.542;11.974;2023-02-01T00:23:42;5.30;99.90
16958;DHT22;8595;52.542;11.974;2023-02-01T00:26:14;5.20;99.90
16958;DHT22;8595;52.542;11.974;2023-02-01T00:28:41;5.20;99.90
16958;DHT22;8595;52.542;11.974;2023-02-01T00:31:08;5.10;99.90
16958;DHT22;8595;52.542;11.974;2023-02-01T00:33:34;5.10;99.90
16958;DHT22;8595;52.542;11.974;2023-02-01T00:36:05;5.10;99.90
16958;DHT22;8595;52.542;11.974;2023-02-01T00:38:33;5.10;99.90
16958;DHT22;8595;52.542;11.974;2023-02-01T00:41:02;5.00;99.90
16958;DHT22;8595;52.542;11.974;2023-02-01T00:43:30;5.00;99.90
16958;DHT22;8595;52.542;11.974;2023-02-01T00:45:57;5.00;99.90
16958;DHT22;8595;52.542;11.974;2023-02-01T00:48:24;5.00;99.90
16958;DHT22;8595;52.542;11.974;2023-02-01T00:50:51;4.90;99.90
16958;DHT22;8595;52.542;11.974;2023-02-01T00:53:19;4.90;99.90
16958;DHT22;8595;52.542;11.974;2023-02-01T00:55:46;4.90;99.90
16958;DHT22;8595;52.542;11.974;2023-02-01T00:58:12;4.90;99.90
16958;DHT22;8595;52.542;11.974;2023-02-01T01:00:42;4.90;99.90
16958;DHT22;8595;52.542;11.974;2023-02-01T01:03:12;4.90;99.90
16958;DHT22;8595;52.542;11.974;2023-02-01T01:05:45;4.90;99.90
16958;DHT22;8595;52.542;11.974;2023-02-01T01:08:12;4.90;99.90
16958;DHT22;8595;52.542;11.974;2023-02-01T01:10:40;4.80;99.90
16958;DHT22;8595;52.542;11.974;2023-02-01T01:13:07;4.90;99.90
16958;DHT22;8595;52.542;11.974;2023-02-01T01:15:36;4.90;99.90
16958;DHT22;8595;52.542;11.974;2023-02-01T01:18:03;4.90;99.90
16958;DHT22;8595;52.542;11.974;2023-02-01T01:20:30;4.90;99.90
16958;DHT22;8595;52.542;11.974;2023-02-01T01:22:57;5.00;99.90
16958;DHT22;8595;52.542;11.974;2023-02-01T01:25:24;4.90;99.90
16958;DHT22;8595;52.542;11.974;2023-02-01T01:27:52;4.90;99.90
16958;DHT22;8595;52.542;11.974;2023-02-01T01:30:21;4.90;99.90
16958;DHT22;8595;52.542;11.974;2023-02-01T01:32:48;5.00;99.90
16958;DHT22;8595;52.542;11.974;2023-02-01T01:35:15;5.00;99.90
16958;DHT22;8595;52.542;11.974;2023-02-01T01:37:41;5.00;99.90
16958;DHT22;8595;52.542;11.974;2023-02-01T01:40:10;5.10;99.90
16958;DHT22;8595;52.542;11.974;2023-02-01T01:42:37;5.00;99.90
16958;DHT22;8595;52.542;11.974;2023-02-01T01:45:08;5.10;99.90
16958;DHT22;8595;52.542;11.974;2023-02-01T01:47:46;5.10;99.90
16958;DHT22;8595;52.542;11.974;2023-02-01T01:50:17;5.10;99.90
16958;DHT22;8595;52.542;11.974;2023-02-01T01:52:46;5.10;99.90
16958;DHT22;8595;52.542;11.974;2023-02-01T01:55:16;5.10;99.90
16958;DHT22;8595;52.542;11.974;2023-02-01T01:57:48;5.10;99.90
16958;DHT22;8595;52.542;11.974;2023-02-01T02:00:20;5.10;99.90
16958;DHT22;8595;52.542;11.974;2023-02-01T02:02:51;5.10;99.90
16958;DHT22;8595;52.542;11.974;2023-02-01T02:05:19;5.10;99.90
16958;DHT22;8595;52.542;11.974;2023-02-01T02:07:48;5.10;99.90
16958;DHT22;8595;52.542;11.974;2023-02-01T02:10:16;5.10;99.90
16958;DHT22;8595;52.542;11.974;2023-02-01T02:12:45;5.10;99.90
16958;DHT22;8595;52.542;11.974;2023-02-01T02:15:14;5.20;99.90
16958;DHT22;8595;52.542;11.974;2023-02-01T02:17:49;5.20;99.90
16958;DHT22;8595;52.542;11.974;2023-02-01T02:20:52;5.20;99.90
16958;DHT22;8595;52.542;11.974;2023-02-01T02:23:50;5.20;99.90
16958;DHT22;8595;52.542;11.974;2023-02-01T02:26:45;5.20;99.90
16958;DHT22;8595;52.542;11.974;2023-02-01T02:29:44;5.20;99.90
16958;DHT22;8595;52.542;11.974;2023-02-01T02:35:28;5.20;99.90
16958;DHT22;8595;52.542;11.974;2023-02-01T02:38:05;5.20;99.90
16958;DHT22;8595;52.542;11.974;2023-02-01T02:40:45;5.30;99.90
16958;DHT22;8595;52.542;11.974;2023-02-01T02:43:20;5.30;99.90
16958;DHT22;8595;52.542;11.974;2023-02-01T02:46:07;5.30;99.90
16958;DHT22;8595;52.542;11.974;2023-02-01T02:49:01;5.40;99.90
16958;DHT22;8595;52.542;11.974;2023-02-01T02:51:34;5.50;99.90
16958;DHT22;8595;52.542;11.974;2023-02-01T02:54:23;5.50;99.90
16958;DHT22;8595;52.542;11.974;2023-02-01T02:57:11;5.50;99.90
16958;DHT22;8595;52.542;11.974;2023-02-01T02:59:57;5.50;99.90
16958;DHT22;8595;52.542;11.974;2023-02-01T03:02:43;5.50;99.90
16958;DHT22;8595;52.542;11.974;2023-02-01T03:05:32;5.50;99.90
16958;DHT22;8595;52.542;11.974;2023-02-01T03:08:08;5.60;99.90
16958;DHT22;8595;52.542;11.974;2023-02-01T03:10:50;5.60;99.90
16958;DHT22;8595;52.542;11.974;2023-02-01T03:13:24;5.60;99.90
16958;DHT22;8595;52.542;11.974;2023-02-01T03:15:57;5.60;99.90
16958;DHT22;8595;52.542;11.974;2023-02-01T03:18:30;5.60;99.90
16958;DHT22;8595;52.542;11.974;2023-02-01T03:21:02;5.60;99.90
16958;DHT22;8595;52.542;11.974;2023-02-01T03:23:34;5.70;99.90
16958;DHT22;8595;52.542;11.974;2023-02-01T03:26:04;5.60;99.90
16958;DHT22;8595;52.542;11.974;2023-02-01T03:28:33;5.70;99.90
16958;DHT22;8595;52.542;11.974;2023-02-01T03:31:01;5.60;99.90
16958;DHT22;8595;52.542;11.974;2023-02-01T03:33:29;5.60;99.90
16958;DHT22;8595;52.542;11.974;2023-02-01T03:36:05;5.60;99.90
16958;DHT22;8595;52.542;11.974;2023-02-01T03:38:39;5.60;99.90
16958;DHT22;8595;52.542;11.974;2023-02-01T03:41:12;5.60;99.90
16958;DHT22;8595;52.542;11.974;2023-02-01T03:43:47;5.70;99.90
16958;DHT22;8595;52.542;11.974;2023-02-01T03:46:21;5.70;99.90
16958;DHT22;8595;52.542;11.974;2023-02-01T03:48:51;5.60;99.90
16958;DHT22;8595;52.542;11.974;2023-02-01T03:51:20;5.50;99.90
16958;DHT22;8595;52.542;11.974;2023-02-01T03:53:49;5.70;99.90
16958;DHT22;8595;52.542;11.974;2023-02-01T03:56:18;5.60;99.90
16958;DHT22;8595;52.542;11.974;2023-02-01T03:58:48;5.70;99.90
16958;DHT22;8595;52.542;11.974;2023-02-01T04:01:25;5.60;99.90
16958;DHT22;8595;52.542;11.974;2023-02-01T04:03:52;5.70;99.90
16958;DHT22;8595;52.542;11.974;2023-02-01T04:06:18;5.60;99.90
16958;DHT22;8595;52.542;11.974;2023-02-01T04:08:45;5.60;99.90
16958;DHT22;8595;52.542;11.974;2023-02-01T04:11:13;5.50;99.90
16958;DHT22;8595;52.542;11.974;2023-02-01T04:13:40;5.50;99.90
16958;DHT22;8595;52.542;11.974;2023-02-01T04:16:07;5.50;99.90
16958;DHT22;8595;52.542;11.974;2023-02-01T04:18:33;5.50;99.90
16958;DHT22;8595;52.542;11.974;2023-02-01T04:21:00;5.50;99.90
16958;DHT22;8595;52.542;11.974;2023-02-01T04:23:27;5.50;99.90
16958;DHT22;8595;52.542;11.974;2023-02-01T04:25:55;5.50;99.90
16958;DHT22;8595;52.542;11.974;2023-02-01T04:28:26;5.40;99.90
16958;DHT22;8595;52.542;11.974;2023-02-01T04:30:53;5.40;99.90
16958;DHT22;8595;52.542;11.974;2023-02-01T04:33:19;5.50;99.90
16958;DHT22;8595;52.542;11.974;2023-02-01T04:35:47;5.40;99.90
16958;DHT22;8595;52.542;11.974;2023-02-01T04:38:14;5.40;99.90
16958;DHT22;8595;52.542;11.974;2023-02-01T04:40:40;5.30;99.90
16958;DHT22;8595;52.542;11.974;2023-02-01T04:43:07;5.30;99.90
16958;DHT22;8595;52.542;11.974;2023-02-01T04:45:35;5.40;99.90
16958;DHT22;8595;52.542;11.974;2023-02-01T04:48:02;5.40;99.90
16958;DHT22;8595;52.542;11.974;2023-02-01T04:50:29;5.40;99.90
16958;DHT22;8595;52.542;11.974;2023-02-01T04:52:56;5.40;99.90
16958;DHT22;8595;52.542;11.974;2023-02-01T04:55:22;5.40;99.90
16958;DHT22;8595;52.542;11.974;2023-02-01T04:57:49;5.40;99.90
16958;DHT22;8595;52.542;11.974;2023-02-01T05:00:16;5.40;99.90
16958;DHT22;8595;52.542;11.974;2023-02-01T05:02:44;5.40;99.90
16958;DHT22;8595;52.542;11.974;2023-02-01T05:05:11;5.30;99.90
16958;DHT22;8595;52.542;11.974;2023-02-01T05:07:38;5.20;99.90
16958;DHT22;8595;52.542;11.974;2023-02-01T05:10:05;5.20;99.90
16958;DHT22;8595;52.542;11.974;2023-02-01T05:12:32;5.20;99.90
16958;DHT22;8595;52.542;11.974;2023-02-01T05:15:18;5.30;99.90
16958;DHT22;8595;52.542;11.974;2023-02-01T05:17:46;5.30;99.90
16958;DHT22;8595;52.542;11.974;2023-02-01T05:20:13;5.30;99.90
16958;DHT22;8595;52.542;11.974;2023-02-01T05:22:41;5.40;99.90
16958;DHT22;8595;52.542;11.974;2023-02-01T05:25:08;5.40;99.90
16958;DHT22;8595;52.542;11.974;2023-02-01T05:27:35;5.40;99.90
16958;DHT22;8595;52.542;11.974;2023-02-01T05:30:03;5.40;99.90
16958;DHT22;8595;52.542;11.974;2023-02-01T05:32:30;5.30;99.90
16958;DHT22;8595;52.542;11.974;2023-02-01T05:34:58;5.40;99.90
16958;DHT22;8595;52.542;11.974;2023-02-01T05:37:25;5.40;99.90
16958;DHT22;8595;52.542;11.974;2023-02-01T05:39:52;5.40;99.90
16958;DHT22;8595;52.542;11.974;2023-02-01T05:42:19;5.50;99.90
16958;DHT22;8595;52.542;11.974;2023-02-01T05:44:46;5.40;99.90
16958;DHT22;8595;52.542;11.974;2023-02-01T05:47:12;5.40;99.90
16958;DHT22;8595;52.542;11.974;2023-02-01T05:49:39;5.30;99.90
16958;DHT22;8595;52.542;11.974;2023-02-01T05:52:07;5.40;99.90
16958;DHT22;8595;52.542;11.974;2023-02-01T05:54:33;5.40;99.90
16958;DHT22;8595;52.542;11.974;2023-02-01T05:57:00;5.40;99.90
16958;DHT22;8595;52.542;11.974;2023-02-01T05:59:27;5.50;99.90
16958;DHT22;8595;52.542;11.974;2023-02-01T06:01:54;5.40;99.90
16958;DHT22;8595;52.542;11.974;2023-02-01T06:04:21;5.50;99.90
16958;DHT22;8595;52.542;11.974;2023-02-01T06:06:48;5.50;99.90
16958;DHT22;8595;52.542;11.974;2023-02-01T06:09:17;5.50;99.90
16958;DHT22;8595;52.542;11.974;2023-02-01T06:11:43;5.50;99.90
16958;DHT22;8595;52.542;11.974;2023-02-01T06:14:10;5.50;99.90
16958;DHT22;8595;52.542;11.974;2023-02-01T06:16:37;5.60;99.90
16958;DHT22;8595;52.542;11.974;2023-02-01T06:19:03;5.50;99.90
16958;DHT22;8595;52.542;11.974;2023-02-01T06:21:30;5.50;99.90
16958;DHT22;8595;52.542;11.974;2023-02-01T06:23:56;5.40;99.90
16958;DHT22;8595;52.542;11.974;2023-02-01T06:26:25;5.30;99.90
16958;DHT22;8595;52.542;11.974;2023-02-01T06:28:53;5.30;99.90
16958;DHT22;8595;52.542;11.974;2023-02-01T06:31:20;5.30;99.90
16958;DHT22;8595;52.542;11.974;2023-02-01T06:33:47;5.20;99.90
16958;DHT22;8595;52.542;11.974;2023-02-01T06:36:14;5.20;99.90
16958;DHT22;8595;52.542;11.974;2023-02-01T06:38:41;5.20;99.90
16958;DHT22;8595;52.542;11.974;2023-02-01T06:41:09;5.10;99.90
16958;DHT22;8595;52.542;11.974;2023-02-01T06:43:37;5.00;99.90
16958;DHT22;8595;52.542;11.974;2023-02-01T06:46:06;5.00;99.90
16958;DHT22;8595;52.542;11.974;2023-02-01T06:48:33;4.90;99.90
16958;DHT22;8595;52.542;11.974;2023-02-01T06:51:00;4.80;99.90
16958;DHT22;8595;52.542;11.974;2023-02-01T06:53:27;4.80;99.90
16958;DHT22;8595;52.542;11.974;2023-02-01T06:55:55;4.80;99.90
16958;DHT22;8595;52.542;11.974;2023-02-01T06:58:23;4.70;99.90
16958;DHT22;8595;52.542;11.974;2023-02-01T07:00:51;4.70;99.90
16958;DHT22;8595;52.542;11.974;2023-02-01T07:03:19;4.60;99.90
16958;DHT22;8595;52.542;11.974;2023-02-01T07:05:46;4.60;99.90
16958;DHT22;8595;52.542;11.974;2023-02-01T07:08:12;4.60;99.90
16958;DHT22;8595;52.542;11.974;2023-02-01T07:10:39;4.60;99.90
16958;DHT22;8595;52.542;11.974;2023-02-01T07:13:06;4.40;99.90
16958;DHT22;8595;52.542;11.974;2023-02-01T07:15:33;4.50;99.90
16958;DHT22;8595;52.542;11.974;2023-02-01T07:18:01;4.50;99.90
16958;DHT22;8595;52.542;11.974;2023-02-01T07:20:28;4.50;99.90
16958;DHT22;8595;52.542;11.974;2023-02-01T07:22:55;4.50;99.90
16958;DHT22;8595;52.542;11.974;2023-02-01T07:25:23;4.50;99.90
16958;DHT22;8595;52.542;11.974;2023-02-01T07:27:49;4.50;99.90
16958;DHT22;8595;52.542;11.974;2023-02-01T07:30:17;4.40;99.90
16958;DHT22;8595;52.542;11.974;2023-02-01T07:32:44;4.50;99.90
16958;DHT22;8595;52.542;11.974;2023-02-01T07:35:12;4.50;99.90
16958;DHT22;8595;52.542;11.974;2023-02-01T07:37:39;4.50;99.90
16958;DHT22;8595;52.542;11.974;2023-02-01T07:40:07;4.50;99.90
16958;DHT22;8595;52.542;11.974;2023-02-01T07:42:34;4.20;99.90
16958;DHT22;8595;52.542;11.974;2023-02-01T07:45:00;4.20;99.90
16958;DHT22;8595;52.542;11.974;2023-02-01T07:47:27;4.10;99.90
16958;DHT22;8595;52.542;11.974;2023-02-01T07:49:54;4.10;99.90
16958;DHT22;8595;52.542;11.974;2023-02-01T07:52:22;4.20;99.90
16958;DHT22;8595;52.542;11.974;2023-02-01T07:54:49;4.20;99.90
16958;DHT22;8595;52.542;11.974;2023-02-01T07:57:15;4.10;99.90
16958;DHT22;8595;52.542;11.974;2023-02-01T07:59:42;4.20;99.90
16958;DHT22;8595;52.542;11.974;2023-02-01T08:02:23;4.10;99.90
16958;DHT22;8595;52.542;11.974;2023-02-01T08:04:50;4.10;99.90
16958;DHT22;8595;52.542;11.974;2023-02-01T08:07:16;4.20;99.90
16958;DHT22;8595;52.542;11.974;2023-02-01T08:09:44;4.20;99.90
16958;DHT22;8595;52.542;11.974;2023-02-01T08:12:11;4.20;99.90
16958;DHT22;8595;52.542;11.974;2023-02-01T08:14:38;4.20;99.90
16958;DHT22;8595;52.542;11.974;2023-02-01T08:17:06;4.20;99.90
16958;DHT22;8595;52.542;11.974;2023-02-01T08:19:33;4.10;99.90
16958;DHT22;8595;52.542;11.974;2023-02-01T08:21:59;4.10;99.90
16958;DHT22;8595;52.542;11.974;2023-02-01T08:24:27;4.10;99.90
16958;DHT22;8595;52.542;11.974;2023-02-01T08:26:55;4.00;99.90
16958;DHT22;8595;52.542;11.974;2023-02-01T08:29:22;4.10;99.90
16958;DHT22;8595;52.542;11.974;2023-02-01T08:31:48;4.00;99.90
16958;DHT22;8595;52.542;11.974;2023-02-01T08:34:16;4.00;99.90
16958;DHT22;8595;52.542;11.974;2023-02-01T08:36:42;4.00;99.90
16958;DHT22;8595;52.542;11.974;2023-02-01T08:39:10;4.10;99.90
16958;DHT22;8595;52.542;11.974;2023-02-01T08:41:37;4.10;99.90
16958;DHT22;8595;52.542;11.974;2023-02-01T08:44:05;4.10;99.90
16958;DHT22;8595;52.542;11.974;2023-02-01T08:46:32;4.00;99.90
16958;DHT22;8595;52.542;11.974;2023-02-01T08:48:59;4.10;99.90
16958;DHT22;8595;52.542;11.974;2023-02-01T08:51:25;4.00;99.90
16958;DHT22;8595;52.542;11.974;2023-02-01T08:53:52;3.90;99.90
16958;DHT22;8595;52.542;11.974;2023-02-01T08:56:19;3.80;99.90
16958;DHT22;8595;52.542;11.974;2023-02-01T08:58:46;3.80;99.90
16958;DHT22;8595;52.542;11.974;2023-02-01T09:01:16;3.80;99.90
16958;DHT22;8595;52.542;11.974;2023-02-01T09:03:42;3.80;99.90
16958;DHT22;8595;52.542;11.974;2023-02-01T09:06:11;3.70;99.90
16958;DHT22;8595;52.542;11.974;2023-02-01T09:08:39;3.70;99.90
16958;DHT22;8595;52.542;11.974;2023-02-01T09:11:08;3.70;99.90
16958;DHT22;8595;52.542;11.974;2023-02-01T09:13:36;3.70;99.90
16958;DHT22;8595;52.542;11.974;2023-02-01T09:16:03;3.90;99.90
16958;DHT22;8595;52.542;11.974;2023-02-01T09:18:32;4.20;99.90
16958;DHT22;8595;52.542;11.974;2023-02-01T09:20:58;4.50;99.90
16958;DHT22;8595;52.542;11.974;2023-02-01T09:23:25;4.90;99.90
16958;DHT22;8595;52.542;11.974;2023-02-01T09:25:52;5.50;99.90
16958;DHT22;8595;52.542;11.974;2023-02-01T09:28:19;5.70;99.90
16958;DHT22;8595;52.542;11.974;2023-02-01T09:30:46;5.80;99.90
16958;DHT22;8595;52.542;11.974;2023-02-01T09:33:12;5.50;99.90
16958;DHT22;8595;52.542;11.974;2023-02-01T09:35:40;5.50;99.90
16958;DHT22;8595;52.542;11.974;2023-02-01T09:38:07;5.70;99.90
16958;DHT22;8595;52.542;11.974;2023-02-01T09:40:34;6.00;99.90
16958;DHT22;8595;52.542;11.974;2023-02-01T09:43:21;5.90;99.90
16958;DHT22;8595;52.542;11.974;2023-02-01T09:45:58;6.10;99.90
16958;DHT22;8595;52.542;11.974;2023-02-01T09:48:30;6.50;99.90
16958;DHT22;8595;52.542;11.974;2023-02-01T09:51:04;6.50;99.90
16958;DHT22;8595;52.542;11.974;2023-02-01T09:53:34;6.60;99.90
16958;DHT22;8595;52.542;11.974;2023-02-01T09:56:05;6.40;99.90
16958;DHT22;8595;52.542;11.974;2023-02-01T09:58:35;6.20;99.90
16958;DHT22;8595;52.542;11.974;2023-02-01T10:01:12;6.00;99.90
16958;DHT22;8595;52.542;11.974;2023-02-01T10:03:40;5.90;99.90
16958;DHT22;8595;52.542;11.974;2023-02-01T10:06:20;5.80;99.90
16958;DHT22;8595;52.542;11.974;2023-02-01T10:09:14;5.80;99.90
16958;DHT22;8595;52.542;11.974;2023-02-01T10:11:49;5.80;99.90
16958;DHT22;8595;52.542;11.974;2023-02-01T10:14:39;5.80;99.90
16958;DHT22;8595;52.542;11.974;2023-02-01T10:17:18;5.70;99.90
16958;DHT22;8595;52.542;11.974;2023-02-01T10:19:52;5.80;99.90
16958;DHT22;8595;52.542;11.974;2023-02-01T10:22:31;5.90;99.90
16958;DHT22;8595;52.542;11.974;2023-02-01T10:25:05;6.00;99.90
16958;DHT22;8595;52.542;11.974;2023-02-01T10:27:35;6.10;99.90
16958;DHT22;8595;52.542;11.974;2023-02-01T10:30:06;6.10;99.90
16958;DHT22;8595;52.542;11.974;2023-02-01T10:32:40;6.20;99.90
16958;DHT22;8595;52.542;11.974;2023-02-01T10:35:12;6.30;99.90
16958;DHT22;8595;52.542;11.974;2023-02-01T10:37:41;6.40;99.90
16958;DHT22;8595;52.542;11.974;2023-02-01T10:40:16;6.90;99.90
16958;DHT22;8595;52.542;11.974;2023-02-01T10:42:44;6.80;99.90
16958;DHT22;8595;52.542;11.974;2023-02-01T10:45:14;6.60;99.90
16958;DHT22;8595;52.542;11.974;2023-02-01T10:47:41;6.60;99.90
16958;DHT22;8595;52.542;11.974;2023-02-01T10:50:17;6.50;99.90
16958;DHT22;8595;52.542;11.974;2023-02-01T10:52:51;6.50;99.90
16958;DHT22;8595;52.542;11.974;2023-02-01T10:55:38;6.60;99.90
16958;DHT22;8595;52.542;11.974;2023-02-01T10:58:07;6.90;99.90
16958;DHT22;8595;52.542;11.974;2023-02-01T11:00:44;6.70;99.90
16958;DHT22;8595;52.542;11.974;2023-02-01T11:03:33;6.90;99.90
16958;DHT22;8595;52.542;11.974;2023-02-01T11:06:01;7.10;99.90
16958;DHT22;8595;52.542;11.974;2023-02-01T11:08:30;7.10;99.90
16958;DHT22;8595;52.542;11.974;2023-02-01T11:10:59;7.00;99.90
16958;DHT22;8595;52.542;11.974;2023-02-01T11:13:31;6.90;99.90
16958;DHT22;8595;52.542;11.974;2023-02-01T11:16:03;6.80;99.90
16958;DHT22;8595;52.542;11.974;2023-02-01T11:18:31;6.80;99.90
16958;DHT22;8595;52.542;11.974;2023-02-01T11:20:59;6.80;99.90
16958;DHT22;8595;52.542;11.974;2023-02-01T11:23:27;6.80;99.90
16958;DHT22;8595;52.542;11.974;2023-02-01T11:25:59;6.80;99.90
16958;DHT22;8595;52.542;11.974;2023-02-01T11:28:29;6.80;99.90
16958;DHT22;8595;52.542;11.974;2023-02-01T11:31:00;6.90;99.90
16958;DHT22;8595;52.542;11.974;2023-02-01T11:33:32;7.30;99.90
16958;DHT22;8595;52.542;11.974;2023-02-01T11:36:05;7.80;99.90
16958;DHT22;8595;52.542;11.974;2023-02-01T11:38:34;7.90;99.90
16958;DHT22;8595;52.542;11.974;2023-02-01T11:41:13;8.00;99.90
16958;DHT22;8595;52.542;11.974;2023-02-01T11:43:52;8.00;99.90
16958;DHT22;8595;52.542;11.974;2023-02-01T11:46:21;8.40;99.90
16958;DHT22;8595;52.542;11.974;2023-02-01T11:48:50;8.20;99.90
16958;DHT22;8595;52.542;11.974;2023-02-01T11:51:37;8.40;99.90
16958;DHT22;8595;52.542;11.974;2023-02-01T11:54:20;8.50;99.90
16958;DHT22;8595;52.542;11.974;2023-02-01T11:57:02;8.80;99.90
16958;DHT22;8595;52.542;11.974;2023-02-01T11:59:48;8.70;99.90
16958;DHT22;8595;52.542;11.974;2023-02-01T12:02:33;8.50;99.90
16958;DHT22;8595;52.542;11.974;2023-02-01T12:05:19;8.40;99.90
16958;DHT22;8595;52.542;11.974;2023-02-01T12:07:59;8.00;99.90
16958;DHT22;8595;52.542;11.974;2023-02-01T12:10:37;7.90;99.90
16958;DHT22;8595;52.542;11.974;2023-02-01T12:13:23;7.80;99.90
16958;DHT22;8595;52.542;11.974;2023-02-01T12:16:02;7.60;99.90
16958;DHT22;8595;52.542;11.974;2023-02-01T12:21:46;7.60;99.90
16958;DHT22;8595;52.542;11.974;2023-02-01T12:24:46;7.70;99.90
16958;DHT22;8595;52.542;11.974;2023-02-01T12:27:38;7.60;99.90
16958;DHT22;8595;52.542;11.974;2023-02-01T12:30:42;7.50;99.90
16958;DHT22;8595;52.542;11.974;2023-02-01T12:33:17;7.50;99.90
16958;DHT22;8595;52.542;11.974;2023-02-01T12:35:54;7.50;99.90
16958;DHT22;8595;52.542;11.974;2023-02-01T12:38:34;7.40;99.90
16958;DHT22;8595;52.542;11.974;2023-02-01T12:41:10;7.40;99.90
16958;DHT22;8595;52.542;11.974;2023-02-01T12:43:46;7.50;99.90
16958;DHT22;8595;52.542;11.974;2023-02-01T12:46:19;7.30;99.90
16958;DHT22;8595;52.542;11.974;2023-02-01T12:48:55;7.40;99.90
16958;DHT22;8595;52.542;11.974;2023-02-01T12:51:26;7.40;99.90
16958;DHT22;8595;52.542;11.974;2023-02-01T12:53:55;7.30;99.90
16958;DHT22;8595;52.542;11.974;2023-02-01T12:56:28;7.40;99.90
16958;DHT22;8595;52.542;11.974;2023-02-01T12:58:58;7.30;99.90
16958;DHT22;8595;52.542;11.974;2023-02-01T13:01:31;7.20;99.90
16958;DHT22;8595;52.542;11.974;2023-02-01T13:04:03;7.20;99.90
16958;DHT22;8595;52.542;11.974;2023-02-01T13:06:37;7.20;99.90
16958;DHT22;8595;52.542;11.974;2023-02-01T13:09:11;7.20;99.90
16958;DHT22;8595;52.542;11.974;2023-02-01T13:11:44;7.20;99.90
16958;DHT22;8595;52.542;11.974;2023-02-01T13:14:19;7.30;99.90
16958;DHT22;8595;52.542;11.974;2023-02-01T13:16:51;7.40;99.90
16958;DHT22;8595;52.542;11.974;2023-02-01T13:19:23;7.30;99.90
16958;DHT22;8595;52.542;11.974;2023-02-01T13:21:55;7.40;99.90
16958;DHT22;8595;52.542;11.974;2023-02-01T13:24:32;7.40;99.90
16958;DHT22;8595;52.542;11.974;2023-02-01T13:27:00;7.40;99.90
16958;DHT22;8595;52.542;11.974;2023-02-01T13:29:28;7.40;99.90
16958;DHT22;8595;52.542;11.974;2023-02-01T13:32:23;7.40;99.90
16958;DHT22;8595;52.542;11.974;2023-02-01T13:35:13;7.40;99.90
16958;DHT22;8595;52.542;11.974;2023-02-01T13:38:03;7.30;99.90
16958;DHT22;8595;52.542;11.974;2023-02-01T13:40:39;7.20;99.90
16958;DHT22;8595;52.542;11.974;2023-02-01T13:43:12;7.10;99.90
16958;DHT22;8595;52.542;11.974;2023-02-01T13:45:45;6.80;99.90
16958;DHT22;8595;52.542;11.974;2023-02-01T13:48:21;6.70;99.90
16958;DHT22;8595;52.542;11.974;2023-02-01T13:50:55;6.60;99.90
16958;DHT22;8595;52.542;11.974;2023-02-01T13:53:27;6.40;99.90
16958;DHT22;8595;52.542;11.974;2023-02-01T13:56:00;6.20;99.90
16958;DHT22;8595;52.542;11.974;2023-02-01T13:58:33;5.70;99.90
16958;DHT22;8595;52.542;11.974;2023-02-01T14:07:19;5.20;99.90
16958;DHT22;8595;52.542;11.974;2023-02-01T14:09:46;5.00;99.90
16958;DHT22;8595;52.542;11.974;2023-02-01T14:12:45;5.10;99.90
16958;DHT22;8595;52.542;11.974;2023-02-01T14:15:26;4.80;99.90
16958;DHT22;8595;52.542;11.974;2023-02-01T14:17:54;4.60;99.90
16958;DHT22;8595;52.542;11.974;2023-02-01T14:20:45;4.60;99.90
16958;DHT22;8595;52.542;11.974;2023-02-01T14:23:27;4.50;99.90
16958;DHT22;8595;52.542;11.974;2023-02-01T14:26:12;4.50;99.90
16958;DHT22;8595;52.542;11.974;2023-02-01T14:28:43;4.60;99.90
16958;DHT22;8595;52.542;11.974;2023-02-01T14:34:03;4.60;99.90
16958;DHT22;8595;52.542;11.974;2023-02-01T14:36:44;4.60;99.90
16958;DHT22;8595;52.542;11.974;2023-02-01T14:39:39;4.60;99.90
16958;DHT22;8595;52.542;11.974;2023-02-01T14:42:21;4.40;99.90
16958;DHT22;8595;52.542;11.974;2023-02-01T14:44:49;4.60;99.90
16958;DHT22;8595;52.542;11.974;2023-02-01T14:47:31;4.70;99.90
16958;DHT22;8595;52.542;11.974;2023-02-01T14:53:04;4.70;99.90
16958;DHT22;8595;52.542;11.974;2023-02-01T14:55:40;4.70;99.90
16958;DHT22;8595;52.542;11.974;2023-02-01T14:58:15;4.80;99.90
16958;DHT22;8595;52.542;11.974;2023-02-01T15:00:47;4.90;99.90
16958;DHT22;8595;52.542;11.974;2023-02-01T15:03:38;4.90;99.90
16958;DHT22;8595;52.542;11.974;2023-02-01T15:06:21;4.70;99.90
16958;DHT22;8595;52.542;11.974;2023-02-01T15:08:48;3.60;99.90
16958;DHT22;8595;52.542;11.974;2023-02-01T15:11:16;3.10;99.90
16958;DHT22;8595;52.542;11.974;2023-02-01T15:13:48;3.00;99.90
16958;DHT22;8595;52.542;11.974;2023-02-01T15:16:17;2.90;99.90
16958;DHT22;8595;52.542;11.974;2023-02-01T15:18:43;2.90;99.90
16958;DHT22;8595;52.542;11.974;2023-02-01T15:21:17;3.00;99.90
16958;DHT22;8595;52.542;11.974;2023-02-01T15:23:44;3.20;99.90
16958;DHT22;8595;52.542;11.974;2023-02-01T15:26:26;3.20;99.90
16958;DHT22;8595;52.542;11.974;2023-02-01T15:28:53;3.20;99.90
16958;DHT22;8595;52.542;11.974;2023-02-01T15:31:32;3.20;99.90
16958;DHT22;8595;52.542;11.974;2023-02-01T15:34:00;3.30;99.90
16958;DHT22;8595;52.542;11.974;2023-02-01T15:36:26;3.40;99.90
16958;DHT22;8595;52.542;11.974;2023-02-01T15:39:19;3.40;99.90
16958;DHT22;8595;52.542;11.974;2023-02-01T15:41:52;3.30;99.90
16958;DHT22;8595;52.542;11.974;2023-02-01T15:44:27;3.30;99.90
16958;DHT22;8595;52.542;11.974;2023-02-01T15:46:55;3.30;99.90
16958;DHT22;8595;52.542;11.974;2023-02-01T15:49:26;3.30;99.90
16958;DHT22;8595;52.542;11.974;2023-02-01T15:51:54;3.40;99.90
16958;DHT22;8595;52.542;11.974;2023-02-01T15:54:25;3.50;99.90
16958;DHT22;8595;52.542;11.974;2023-02-01T15:56:55;3.50;99.90
16958;DHT22;8595;52.542;11.974;2023-02-01T15:59:25;3.60;99.90
16958;DHT22;8595;52.542;11.974;2023-02-01T16:01:54;3.60;99.90
16958;DHT22;8595;52.542;11.974;2023-02-01T16:04:23;3.70;99.90
16958;DHT22;8595;52.542;11.974;2023-02-01T16:06:52;3.80;99.90
16958;DHT22;8595;52.542;11.974;2023-02-01T16:09:22;3.90;99.90
16958;DHT22;8595;52.542;11.974;2023-02-01T16:11:55;4.00;99.90
16958;DHT22;8595;52.542;11.974;2023-02-01T16:14:22;4.10;99.90
16958;DHT22;8595;52.542;11.974;2023-02-01T16:16:53;4.20;99.90
16958;DHT22;8595;52.542;11.974;2023-02-01T16:19:20;4.30;99.90
16958;DHT22;8595;52.542;11.974;2023-02-01T16:21:48;4.30;99.90
16958;DHT22;8595;52.542;11.974;2023-02-01T16:24:15;4.30;99.90
16958;DHT22;8595;52.542;11.974;2023-02-01T16:26:42;4.40;99.90
16958;DHT22;8595;52.542;11.974;2023-02-01T16:29:10;4.50;99.90
16958;DHT22;8595;52.542;11.974;2023-02-01T16:31:38;4.40;99.90